Morehead City, NC (28557)

1:19 PM EST on February 27, 2017 (GMT -0500)
| | Change Station

Elev -9999 ft 0.00 °N, 0.00 °E | Updated 1 minute ago

Mostly Cloudy
Mostly Cloudy
°F
Feels Like °F
N
Wind Variable Wind from North
Gusts mph

Today
High -- | Low -- °F
--% Chance of Precip.
Yesterday
High -- | Low -- °F
Precip. -- in
Pressure 30.42 in
Visibility 10.0 miles
Clouds Overcast 4800 ft
Dew Point Not available.
Humidity Not available.
Rainfall --
Snow Depth Not available.
6:38 AM 6:01 PM
New Moon, 2% visible
METAR KMRH 271758Z AUTO 13007KT 10SM OVC048 19/08 A3042 RMK AO2 SLP300 T01940083 10200 20033 58003 TSNO
Pressure 30.42 in
Visibility 10.0 miles
Clouds Overcast 4800 ft
Dew Point Not available.
Humidity Not available.
Rainfall --
Snow Depth Not available.
6:38 AM 6:01 PM
New Moon, 2% visible
METAR KMRH 271758Z AUTO 13007KT 10SM OVC048 19/08 A3042 RMK AO2 SLP300 T01940083 10200 20033 58003 TSNO

Get Your Daily Forecast Email!

Thanks for signing up!

Be on the lookout for a verification email in your inbox.

You'll start receiving the daily forecast at 8 AM.

×

10-Day Weather Forecast

Almanac

Astronomy

Feb. 27, 2017 Rise Set
Actual Time
Civil Twilight
Nautical Twilight
Astronomical Twilight
Moon
Length of Visible Light
Length of Day
Tomorrow will be .
, % of the Moon is Illuminated

Today's Extremes

State Highs State Lows

Community

WunderPhotos

Upload Photos

1,962,540 photos uploaded!

WunderBlog® & News

Nearby

Air Quality

  Air Quality AQ Index Pollutant
Not available.

Snow Depth

Station Depth Elevation

Earthquake Activity

City Distance Mag. Time & Date
Minimum magnitude displayed is 2.5.

Coastal Water Temperatures

Place Temperature

Stations

Nearby Weather Stations

Station Location Temp. Windchill Dew Point Humidity Wind Precip. Elev Updated Type
                   

Watches & Warnings

There are currently no watches in effect.